createdAt,value
2023-09-25T00:01:48.318Z,2.33
2023-09-25T00:04:17.235Z,2.20
2023-09-25T00:06:47.669Z,3.08
2023-09-25T00:09:16.216Z,2.60
2023-09-25T00:11:45.766Z,2.92
2023-09-25T00:14:15.057Z,2.63
2023-09-25T00:16:43.614Z,2.30
2023-09-25T00:19:12.781Z,1.80
2023-09-25T00:21:41.971Z,2.47
2023-09-25T00:24:12.222Z,2.97
2023-09-25T00:26:40.746Z,3.08
2023-09-25T00:29:09.484Z,2.30
2023-09-25T00:31:38.585Z,2.45
2023-09-25T00:34:07.253Z,2.58
2023-09-25T00:36:36.032Z,2.45
2023-09-25T00:39:07.488Z,2.67
2023-09-25T00:41:38.134Z,2.20
2023-09-25T00:44:06.817Z,2.95
2023-09-25T00:46:35.320Z,2.28
2023-09-25T00:49:04.028Z,1.80
2023-09-25T00:51:32.604Z,2.75
2023-09-25T00:54:00.999Z,2.90
2023-09-25T00:56:29.582Z,2.67
2023-09-25T00:59:00.318Z,1.85
2023-09-25T01:03:58.403Z,2.35
2023-09-25T01:06:26.885Z,2.20
2023-09-25T01:08:55.527Z,2.05
2023-09-25T01:11:24.103Z,2.20
2023-09-25T01:13:53.914Z,3.25
2023-09-25T01:16:25.815Z,2.53
2023-09-25T01:21:24.144Z,2.80
2023-09-25T01:23:54.295Z,2.40
2023-09-25T01:26:23.110Z,2.80
2023-09-25T01:28:51.950Z,2.63
2023-09-25T01:31:20.549Z,2.35
2023-09-25T01:33:49.499Z,2.47
2023-09-25T01:36:18.428Z,3.50
2023-09-25T01:38:48.004Z,2.38
2023-09-25T01:41:19.076Z,1.98
2023-09-25T01:46:18.466Z,2.80
2023-09-25T01:51:17.031Z,2.42
2023-09-25T01:53:47.459Z,2.40
2023-09-25T01:56:17.751Z,2.90
2023-09-25T01:58:46.336Z,2.45
2023-09-25T02:01:14.722Z,2.42
2023-09-25T02:03:44.607Z,2.67
2023-09-25T02:06:14.410Z,2.60
2023-09-25T02:08:43.543Z,3.15
2023-09-25T02:11:12.091Z,2.70
2023-09-25T02:13:43.043Z,2.70
2023-09-25T02:16:11.931Z,3.08
2023-09-25T02:18:40.470Z,2.63
2023-09-25T02:21:09.237Z,3.03
2023-09-25T02:23:40.373Z,2.35
2023-09-25T02:26:09.141Z,3.05
2023-09-25T02:28:37.514Z,3.03
2023-09-25T02:31:08.748Z,2.92
2023-09-25T02:33:37.697Z,2.83
2023-09-25T02:36:07.295Z,2.53
2023-09-25T02:38:36.636Z,2.58
2023-09-25T02:41:05.774Z,3.30
2023-09-25T02:43:34.339Z,2.83
2023-09-25T02:46:03.330Z,2.55
2023-09-25T02:48:34.710Z,2.97
2023-09-25T02:51:03.478Z,2.72
2023-09-25T02:53:33.296Z,2.92
2023-09-25T02:56:01.985Z,3.67
2023-09-25T02:58:31.402Z,3.38
2023-09-25T03:01:01.349Z,2.70
2023-09-25T03:03:31.526Z,2.97
2023-09-25T03:06:01.503Z,2.85
2023-09-25T03:08:30.016Z,2.70
2023-09-25T03:10:58.800Z,3.00
2023-09-25T03:13:27.262Z,2.53
2023-09-25T03:15:56.107Z,2.30
2023-09-25T03:18:24.737Z,2.30
2023-09-25T03:20:53.310Z,2.40
2023-09-25T03:23:23.781Z,2.35
2023-09-25T03:25:52.433Z,2.17
2023-09-25T03:28:21.653Z,2.50
2023-09-25T03:30:50.970Z,2.13
2023-09-25T03:33:19.879Z,1.90
2023-09-25T03:35:48.607Z,2.92
2023-09-25T03:38:17.168Z,3.05
2023-09-25T03:40:47.394Z,2.58
2023-09-25T03:43:15.955Z,2.35
2023-09-25T03:45:44.721Z,2.53
2023-09-25T03:48:13.308Z,2.60
2023-09-25T03:50:42.046Z,2.30
2023-09-25T03:53:12.549Z,2.90
2023-09-25T03:55:41.396Z,2.65
2023-09-25T03:58:11.608Z,2.95
2023-09-25T04:00:40.941Z,2.38
2023-09-25T04:03:09.785Z,2.60
2023-09-25T04:05:38.440Z,3.10
2023-09-25T04:08:07.418Z,2.97
2023-09-25T04:10:35.852Z,3.10
2023-09-25T04:13:04.317Z,2.72
2023-09-25T04:15:34.083Z,3.35
2023-09-25T04:18:03.007Z,2.78
2023-09-25T04:20:33.495Z,3.28
2023-09-25T04:23:01.858Z,3.20
2023-09-25T04:25:30.511Z,3.03
2023-09-25T04:27:59.121Z,3.17
2023-09-25T04:30:29.344Z,3.33
2023-09-25T04:33:00.294Z,3.60
2023-09-25T04:35:29.877Z,4.00
2023-09-25T04:37:58.473Z,3.35
2023-09-25T04:40:32.317Z,3.20
2023-09-25T04:43:01.911Z,3.88
2023-09-25T04:45:31.243Z,3.97
2023-09-25T04:48:01.978Z,3.95
2023-09-25T04:50:31.338Z,3.13
2023-09-25T04:53:00.001Z,3.97
2023-09-25T04:55:28.353Z,3.15
2023-09-25T04:57:57.081Z,3.40
2023-09-25T05:00:28.078Z,3.00
2023-09-25T05:02:57.967Z,3.67
2023-09-25T05:05:28.575Z,3.92
2023-09-25T05:07:59.055Z,3.33
2023-09-25T05:10:28.923Z,4.18
2023-09-25T05:12:58.319Z,3.10
2023-09-25T05:15:27.417Z,2.90
2023-09-25T05:17:56.437Z,3.58
2023-09-25T05:20:26.960Z,3.72
2023-09-25T05:22:58.906Z,3.13
2023-09-25T05:25:28.374Z,3.72
2023-09-25T05:27:58.384Z,3.45
2023-09-25T05:30:26.949Z,3.50
2023-09-25T05:32:55.847Z,3.95
2023-09-25T05:35:24.888Z,3.38
2023-09-25T05:37:54.498Z,3.30
2023-09-25T05:40:25.131Z,3.53
2023-09-25T05:42:53.798Z,3.13
2023-09-25T05:45:23.045Z,3.17
2023-09-25T05:47:51.948Z,3.40
2023-09-25T05:50:20.816Z,3.47
2023-09-25T05:52:49.576Z,3.47
2023-09-25T05:55:18.267Z,3.30
2023-09-25T05:57:48.264Z,4.07
2023-09-25T06:00:19.661Z,4.00
2023-09-25T06:02:50.114Z,3.97
2023-09-25T06:05:19.409Z,3.15
2023-09-25T06:07:48.166Z,3.60
2023-09-25T06:10:19.455Z,3.53
2023-09-25T06:12:51.930Z,3.60
2023-09-25T06:15:24.944Z,3.65
2023-09-25T06:17:54.606Z,3.30
2023-09-25T06:20:26.175Z,4.05
2023-09-25T06:22:55.100Z,3.75
2023-09-25T06:25:23.996Z,3.78
2023-09-25T06:27:54.539Z,3.95
2023-09-25T06:30:23.451Z,3.50
2023-09-25T06:32:52.430Z,4.65
2023-09-25T06:35:21.192Z,4.00
2023-09-25T06:37:50.050Z,4.25
2023-09-25T06:40:20.546Z,4.68
2023-09-25T06:42:49.673Z,4.82
2023-09-25T06:45:22.857Z,4.88
2023-09-25T06:47:52.010Z,4.57
2023-09-25T06:50:20.976Z,5.13
2023-09-25T06:52:49.493Z,4.43
2023-09-25T06:55:18.163Z,4.22
2023-09-25T06:57:47.352Z,5.00
2023-09-25T07:00:16.498Z,4.10
2023-09-25T07:02:46.909Z,3.88
2023-09-25T07:05:16.488Z,3.15
2023-09-25T07:07:45.566Z,3.40
2023-09-25T07:10:14.245Z,2.75
2023-09-25T07:12:43.976Z,4.00
2023-09-25T07:15:13.596Z,3.20
2023-09-25T07:17:42.641Z,3.40
2023-09-25T07:20:13.588Z,4.10
2023-09-25T07:22:43.556Z,2.78
2023-09-25T07:25:11.921Z,3.50
2023-09-25T07:27:43.100Z,2.42
2023-09-25T07:30:12.772Z,3.38
2023-09-25T07:32:43.722Z,2.92
2023-09-25T07:35:16.619Z,2.95
2023-09-25T07:37:45.789Z,3.08
2023-09-25T07:40:15.878Z,2.88
2023-09-25T07:42:45.109Z,3.10
2023-09-25T07:45:16.322Z,2.83
2023-09-25T07:47:45.709Z,3.03
2023-09-25T07:50:15.881Z,3.20
2023-09-25T07:52:44.497Z,4.00
2023-09-25T07:55:13.560Z,3.47
2023-09-25T07:57:44.075Z,2.85
2023-09-25T08:00:18.971Z,3.90
2023-09-25T08:02:49.191Z,2.88
2023-09-25T08:05:19.842Z,4.22
2023-09-25T08:07:49.721Z,3.05
2023-09-25T08:10:19.547Z,2.80
2023-09-25T08:12:48.331Z,3.30
2023-09-25T08:15:17.260Z,3.10
2023-09-25T08:17:47.181Z,3.58
2023-09-25T08:20:22.153Z,2.63
2023-09-25T08:22:59.857Z,3.65
2023-09-25T08:25:28.748Z,2.83
2023-09-25T08:27:57.644Z,2.50
2023-09-25T08:30:26.310Z,4.18
2023-09-25T08:32:55.791Z,3.50
2023-09-25T08:35:25.362Z,2.50
2023-09-25T08:37:55.305Z,2.58
2023-09-25T08:40:24.307Z,4.05
2023-09-25T08:43:05.106Z,3.00
2023-09-25T08:45:44.653Z,3.33
2023-09-25T08:48:13.761Z,2.78
2023-09-25T08:50:43.114Z,2.65
2023-09-25T08:53:13.248Z,3.72
2023-09-25T08:55:42.563Z,2.75
2023-09-25T08:58:11.844Z,2.92
2023-09-25T09:00:42.150Z,2.70
2023-09-25T09:03:11.043Z,2.70
2023-09-25T09:05:39.946Z,3.47
2023-09-25T09:08:09.618Z,2.67
2023-09-25T09:10:41.547Z,3.00
2023-09-25T09:13:12.158Z,2.80
2023-09-25T09:15:42.744Z,2.40
2023-09-25T09:18:26.242Z,2.53
2023-09-25T09:20:56.747Z,2.03
2023-09-25T09:23:42.185Z,3.47
2023-09-25T09:26:15.357Z,2.45
2023-09-25T09:28:44.943Z,2.65
2023-09-25T09:31:13.509Z,2.67
2023-09-25T09:33:43.721Z,2.70
2023-09-25T09:36:14.204Z,2.42
2023-09-25T09:38:47.588Z,2.30
2023-09-25T09:41:19.520Z,2.70
2023-09-25T09:43:49.744Z,2.63
2023-09-25T09:46:18.937Z,2.67
2023-09-25T09:48:49.810Z,2.90
2023-09-25T09:53:48.312Z,2.97
2023-09-25T09:56:22.127Z,3.13
2023-09-25T09:58:51.799Z,2.17
2023-09-25T10:01:21.521Z,2.30
2023-09-25T10:03:51.114Z,2.30
2023-09-25T10:06:20.156Z,2.53
2023-09-25T10:09:02.094Z,2.38
2023-09-25T10:11:32.148Z,2.05
2023-09-25T10:14:05.493Z,2.78
2023-09-25T10:17:09.808Z,2.35
2023-09-25T10:19:50.275Z,2.40
2023-09-25T10:22:21.833Z,2.40
2023-09-25T10:25:04.040Z,2.30
2023-09-25T10:27:34.396Z,2.10
2023-09-25T10:30:12.952Z,2.47
2023-09-25T10:32:44.071Z,2.65
2023-09-25T10:35:38.393Z,2.60
2023-09-25T10:41:01.629Z,2.20
2023-09-25T10:43:32.897Z,3.28
2023-09-25T10:46:01.916Z,2.67
2023-09-25T10:48:33.366Z,2.40
2023-09-25T10:51:02.742Z,2.50
2023-09-25T10:53:34.189Z,2.35
2023-09-25T10:56:02.501Z,2.58
2023-09-25T10:58:32.873Z,2.55
2023-09-25T11:01:06.398Z,2.03
2023-09-25T11:03:38.236Z,2.70
2023-09-25T11:06:07.495Z,2.05
2023-09-25T11:08:36.270Z,2.42
2023-09-25T11:11:04.862Z,2.33
2023-09-25T11:13:35.012Z,2.10
2023-09-25T11:16:04.802Z,2.05
2023-09-25T11:18:34.142Z,2.13
2023-09-25T11:21:02.882Z,2.30
2023-09-25T11:23:34.961Z,2.28
2023-09-25T11:26:05.360Z,2.35
2023-09-25T11:28:35.062Z,2.08
2023-09-25T11:31:04.644Z,2.17
2023-09-25T11:33:34.516Z,2.55
2023-09-25T11:36:12.001Z,2.35
2023-09-25T11:38:54.737Z,2.00
2023-09-25T11:41:31.901Z,2.15
2023-09-25T11:44:11.007Z,1.85
2023-09-25T11:46:40.318Z,2.53
2023-09-25T11:49:09.364Z,2.72
2023-09-25T11:51:38.493Z,2.55
2023-09-25T11:54:07.227Z,2.42
2023-09-25T11:56:35.889Z,2.47
2023-09-25T11:59:05.206Z,2.30
2023-09-25T12:01:37.970Z,2.58
2023-09-25T12:04:06.661Z,2.40
2023-09-25T12:06:36.224Z,2.25
2023-09-25T12:09:12.827Z,2.30
2023-09-25T12:11:43.519Z,2.35
2023-09-25T12:14:12.801Z,2.50
2023-09-25T12:16:43.531Z,2.33
2023-09-25T12:19:13.254Z,2.55
2023-09-25T12:21:42.385Z,2.80
2023-09-25T12:24:11.413Z,2.00
2023-09-25T12:26:40.767Z,2.15
2023-09-25T12:29:11.613Z,2.10
2023-09-25T12:31:40.180Z,2.20
2023-09-25T12:34:10.293Z,2.28
2023-09-25T12:36:39.972Z,1.85
2023-09-25T12:39:10.577Z,3.15
2023-09-25T12:41:40.755Z,2.33
2023-09-25T12:44:09.366Z,2.10
2023-09-25T12:46:38.351Z,2.50
2023-09-25T12:49:06.996Z,2.47
2023-09-25T12:51:37.674Z,2.28
2023-09-25T12:54:06.907Z,2.60
2023-09-25T12:56:36.000Z,2.53
2023-09-25T12:59:04.444Z,2.10
2023-09-25T13:01:32.758Z,2.10
2023-09-25T13:04:01.315Z,2.33
2023-09-25T13:06:30.399Z,2.08
2023-09-25T13:09:02.284Z,2.97
2023-09-25T13:11:35.318Z,2.40
2023-09-25T13:14:05.499Z,2.58
2023-09-25T13:19:03.368Z,2.50
2023-09-25T13:21:31.832Z,3.05
2023-09-25T13:24:01.504Z,2.22
2023-09-25T13:26:30.092Z,2.50
2023-09-25T13:28:59.084Z,2.03
2023-09-25T13:31:27.759Z,2.20
2023-09-25T13:33:56.499Z,2.42
2023-09-25T13:36:26.669Z,2.40
2023-09-25T13:41:25.733Z,2.65
2023-09-25T13:43:54.152Z,2.30
2023-09-25T13:46:22.975Z,2.58
2023-09-25T13:48:51.758Z,2.40
2023-09-25T13:51:20.426Z,2.33
2023-09-25T13:53:49.729Z,3.10
2023-09-25T13:56:19.530Z,2.80
2023-09-25T13:58:49.189Z,2.85
2023-09-25T14:01:17.782Z,2.50
2023-09-25T14:03:46.204Z,2.35
2023-09-25T14:06:14.516Z,3.35
2023-09-25T14:08:43.266Z,2.40
2023-09-25T14:11:11.858Z,3.88
2023-09-25T14:13:40.643Z,2.45
2023-09-25T14:16:12.219Z,2.13
2023-09-25T14:18:41.057Z,2.40
2023-09-25T14:21:09.452Z,2.65
2023-09-25T14:23:37.782Z,2.17
2023-09-25T14:26:06.342Z,2.67
2023-09-25T14:28:34.971Z,2.63
2023-09-25T14:31:05.974Z,2.70
2023-09-25T14:33:40.586Z,2.88
2023-09-25T14:36:10.620Z,2.72
2023-09-25T14:38:39.204Z,2.40
2023-09-25T14:41:07.984Z,2.58
2023-09-25T14:43:36.197Z,3.50
2023-09-25T14:46:04.777Z,3.13
2023-09-25T14:48:34.115Z,1.95
2023-09-25T14:51:04.427Z,2.93
2023-09-25T14:53:33.267Z,2.00
2023-09-25T14:56:01.451Z,2.72
2023-09-25T14:58:29.709Z,2.20
2023-09-25T15:00:59.149Z,2.28
2023-09-25T15:03:28.011Z,2.72
2023-09-25T15:05:56.956Z,2.10
2023-09-25T15:08:26.939Z,2.63
2023-09-25T15:10:56.059Z,2.50
2023-09-25T15:13:24.863Z,2.28
2023-09-25T15:15:53.287Z,2.40
2023-09-25T15:18:21.697Z,2.47
2023-09-25T15:20:50.007Z,2.50
2023-09-25T15:23:18.379Z,2.92
2023-09-25T15:25:48.221Z,2.42
2023-09-25T15:28:16.710Z,2.85
2023-09-25T15:30:44.978Z,2.28
2023-09-25T15:33:13.289Z,2.00
2023-09-25T15:35:41.721Z,1.95
2023-09-25T15:38:09.955Z,2.80
2023-09-25T15:40:40.146Z,1.98
2023-09-25T15:43:10.003Z,3.28
2023-09-25T15:45:38.398Z,2.65
2023-09-25T15:48:07.204Z,2.30
2023-09-25T15:50:35.508Z,2.67
2023-09-25T15:53:03.755Z,2.65
2023-09-25T15:55:31.954Z,2.75
2023-09-25T15:58:00.351Z,2.80
2023-09-25T16:00:30.794Z,2.97
2023-09-25T16:03:08.121Z,2.85
2023-09-25T16:05:36.974Z,2.88
2023-09-25T16:08:06.050Z,2.22
2023-09-25T16:10:34.370Z,2.22
2023-09-25T16:13:03.220Z,2.28
2023-09-25T16:15:37.497Z,3.55
2023-09-25T16:18:06.966Z,2.88
2023-09-25T16:20:36.906Z,3.20
2023-09-25T16:23:05.952Z,2.53
2023-09-25T16:25:34.425Z,2.60
2023-09-25T16:28:02.954Z,2.60
2023-09-25T16:30:31.757Z,2.53
2023-09-25T16:33:01.721Z,2.92
2023-09-25T16:35:30.748Z,2.80
2023-09-25T16:38:00.210Z,2.88
2023-09-25T16:40:28.954Z,2.28
2023-09-25T16:42:57.325Z,2.55
2023-09-25T16:45:26.132Z,2.85
2023-09-25T16:47:54.764Z,2.22
2023-09-25T16:50:24.659Z,2.65
2023-09-25T16:52:53.089Z,2.60
2023-09-25T16:55:21.457Z,2.45
2023-09-25T16:57:50.087Z,2.53
2023-09-25T17:00:21.457Z,2.90
2023-09-25T17:02:50.288Z,3.20
2023-09-25T17:05:19.676Z,2.70
2023-09-25T17:07:52.045Z,2.92
2023-09-25T17:10:20.303Z,2.55
2023-09-25T17:12:48.783Z,3.10
2023-09-25T17:15:18.623Z,2.72
2023-09-25T17:17:51.146Z,2.45
2023-09-25T17:20:20.604Z,2.80
2023-09-25T17:23:02.079Z,2.70
2023-09-25T17:25:33.527Z,2.70
2023-09-25T17:28:07.427Z,2.35
2023-09-25T17:30:37.897Z,3.88
2023-09-25T17:33:08.426Z,2.30
2023-09-25T17:35:38.490Z,2.90
2023-09-25T17:38:09.174Z,2.80
2023-09-25T17:43:09.590Z,2.35
2023-09-25T17:45:38.858Z,3.38
2023-09-25T17:48:08.495Z,2.83
2023-09-25T17:50:37.548Z,2.57
2023-09-25T17:53:06.799Z,2.50
2023-09-25T17:55:36.816Z,2.85
2023-09-25T17:58:16.077Z,3.10
2023-09-25T18:00:52.499Z,2.85
2023-09-25T18:03:22.068Z,3.33
2023-09-25T18:05:53.724Z,2.75
2023-09-25T18:08:22.962Z,3.28
2023-09-25T18:10:54.407Z,2.83
2023-09-25T18:13:23.216Z,3.22
2023-09-25T18:15:52.981Z,2.75
2023-09-25T18:18:22.004Z,2.70
2023-09-25T18:20:50.867Z,2.75
2023-09-25T18:23:20.673Z,2.80
2023-09-25T18:25:56.102Z,2.97
2023-09-25T18:28:25.468Z,3.08
2023-09-25T18:30:55.311Z,3.85
2023-09-25T18:33:24.763Z,3.03
2023-09-25T18:35:53.633Z,2.72
2023-09-25T18:38:22.933Z,3.75
2023-09-25T18:40:54.042Z,3.08
2023-09-25T18:43:23.094Z,2.65
2023-09-25T18:45:54.576Z,3.25
2023-09-25T18:48:23.514Z,3.13
2023-09-25T18:50:52.039Z,4.18
2023-09-25T18:53:26.182Z,3.28
2023-09-25T18:55:56.764Z,2.95
2023-09-25T18:58:26.233Z,3.25
2023-09-25T19:00:57.340Z,3.25
2023-09-25T19:03:27.940Z,2.85
2023-09-25T19:05:57.600Z,3.42
2023-09-25T19:08:29.478Z,3.15
2023-09-25T19:10:59.613Z,3.28
2023-09-25T19:13:42.254Z,3.33
2023-09-25T19:16:12.088Z,3.28
2023-09-25T19:18:42.054Z,4.22
2023-09-25T19:21:12.623Z,4.65
2023-09-25T19:23:41.453Z,4.05
2023-09-25T19:26:11.601Z,5.25
2023-09-25T19:28:40.234Z,3.78
2023-09-25T19:31:16.374Z,4.07
2023-09-25T19:33:58.329Z,3.72
2023-09-25T19:36:27.133Z,3.63
2023-09-25T19:38:55.937Z,3.47
2023-09-25T19:41:25.817Z,3.33
2023-09-25T19:43:54.194Z,4.43
2023-09-25T19:46:23.453Z,2.90
2023-09-25T19:48:52.181Z,3.25
2023-09-25T19:51:20.816Z,3.53
2023-09-25T19:53:49.654Z,3.97
2023-09-25T19:56:19.362Z,3.90
2023-09-25T19:58:50.478Z,3.42
2023-09-25T20:01:19.889Z,3.20
2023-09-25T20:03:48.699Z,4.05
2023-09-25T20:06:18.797Z,3.80
2023-09-25T20:08:47.617Z,3.20
2023-09-25T20:11:16.479Z,4.75
2023-09-25T20:13:45.777Z,3.33
2023-09-25T20:16:16.166Z,3.47
2023-09-25T20:18:45.098Z,3.83
2023-09-25T20:21:14.169Z,4.03
2023-09-25T20:23:43.576Z,3.88
2023-09-25T20:26:12.272Z,4.32
2023-09-25T20:28:42.080Z,3.95
2023-09-25T20:31:11.492Z,3.50
2023-09-25T20:33:41.818Z,5.35
2023-09-25T20:36:12.665Z,4.78
2023-09-25T20:38:42.775Z,3.40
2023-09-25T20:41:11.759Z,4.10
2023-09-25T20:43:40.869Z,4.00
2023-09-25T20:46:09.530Z,4.05
2023-09-25T20:51:07.323Z,3.53
2023-09-25T20:53:36.088Z,3.78
2023-09-25T20:56:06.414Z,4.10
2023-09-25T20:58:35.123Z,4.88
2023-09-25T21:01:03.554Z,3.42
2023-09-25T21:03:51.796Z,4.28
2023-09-25T21:06:47.266Z,4.45
2023-09-25T21:09:16.065Z,4.20
2023-09-25T21:11:44.629Z,3.70
2023-09-25T21:14:13.941Z,4.53
2023-09-25T21:16:43.276Z,4.28
2023-09-25T21:19:15.445Z,4.60
2023-09-25T21:21:49.434Z,3.50
2023-09-25T21:24:18.711Z,3.85
2023-09-25T21:26:48.221Z,3.72
2023-09-25T21:29:20.770Z,4.82
2023-09-25T21:31:49.883Z,3.97
2023-09-25T21:34:18.852Z,3.63
2023-09-25T21:36:49.393Z,4.50
2023-09-25T21:39:18.293Z,3.65
2023-09-25T21:41:46.877Z,4.07
2023-09-25T21:44:15.873Z,6.15
2023-09-25T21:46:47.106Z,3.78
2023-09-25T21:49:22.537Z,4.25
2023-09-25T21:51:52.519Z,5.15
2023-09-25T21:54:21.166Z,4.93
2023-09-25T21:56:50.048Z,4.07
2023-09-25T21:59:20.642Z,3.58
2023-09-25T22:01:50.592Z,4.25
2023-09-25T22:04:19.522Z,4.75
2023-09-25T22:06:48.582Z,4.05
2023-09-25T22:09:20.022Z,4.45
2023-09-25T22:11:49.543Z,4.85
2023-09-25T22:14:18.002Z,3.95
2023-09-25T22:16:46.585Z,4.57
2023-09-25T22:19:15.641Z,4.68
2023-09-25T22:21:45.785Z,4.90
2023-09-25T22:24:16.341Z,4.30
2023-09-25T22:26:46.525Z,4.57
2023-09-25T22:29:15.767Z,4.80
2023-09-25T22:31:45.337Z,4.10
2023-09-25T22:34:14.649Z,4.80
2023-09-25T22:36:43.518Z,4.05
2023-09-25T22:39:13.882Z,5.22
2023-09-25T22:41:42.929Z,4.25
2023-09-25T22:44:13.477Z,4.72
2023-09-25T22:46:42.846Z,4.05
2023-09-25T22:49:11.838Z,4.10
2023-09-25T22:51:40.579Z,5.30
2023-09-25T22:54:09.278Z,4.18
2023-09-25T22:56:38.171Z,3.75
2023-09-25T22:59:07.097Z,4.30
2023-09-25T23:01:38.657Z,4.80
2023-09-25T23:04:08.256Z,3.90
2023-09-25T23:06:36.660Z,3.92
2023-09-25T23:09:06.220Z,3.85
2023-09-25T23:11:34.861Z,4.25
2023-09-25T23:14:04.393Z,5.18
2023-09-25T23:16:34.121Z,4.20
2023-09-25T23:19:04.314Z,3.85
2023-09-25T23:21:34.344Z,3.65
2023-09-25T23:24:02.989Z,4.28
2023-09-25T23:26:32.601Z,4.55
2023-09-25T23:29:01.965Z,4.00
2023-09-25T23:31:30.566Z,4.57
2023-09-25T23:33:59.716Z,4.57
2023-09-25T23:36:30.108Z,3.90
2023-09-25T23:38:59.394Z,3.92
2023-09-25T23:41:28.095Z,4.18
2023-09-25T23:43:56.655Z,4.10
2023-09-25T23:46:25.209Z,3.75
2023-09-25T23:48:55.703Z,4.85
2023-09-25T23:51:24.887Z,3.55
2023-09-25T23:53:54.894Z,4.00
2023-09-25T23:56:23.582Z,3.92
2023-09-25T23:58:52.185Z,4.20
